Time;durP1;ratioP1;P1;durP2;ratioP2;P2;SDS_P1;SDS_P2;PMS_P1;PMS_P2;Temp;Humidity;BMP_temperature;BMP_pressure;BME280_temperature;BME280_humidity;BME280_pressure;Samples;Min_cycle;Max_cycle;Signal;HPM_P1;HPM_P2
2021/03/14 00:01:15;;;;;;;;;;;3.10;98.00;;;;;;5035196;28;19913;-69
2021/03/14 00:03:41;;;;;;;;;;;3.10;98.00;;;;;;5025762;28;19913;-69
2021/03/14 00:06:06;;;;;;;;;;;3.10;98.00;;;;;;5018278;28;19920;-67
2021/03/14 00:08:32;;;;;;;;;;;3.10;98.00;;;;;;5027358;28;19919;-68
2021/03/14 00:10:59;;;;;;;;;;;3.00;98.00;;;;;;5019607;28;20276;-67
2021/03/14 00:13:28;;;;;;;;;;;3.00;98.00;;;;;;5020518;28;19917;-67
2021/03/14 00:15:54;;;;;;;;;;;3.00;98.00;;;;;;5032642;28;19917;-68
2021/03/14 00:18:24;;;;;;;;;;;3.00;98.00;;;;;;5015710;28;19963;-67
2021/03/14 00:20:50;;;;;;;;;;;2.90;98.00;;;;;;5032947;28;20265;-66
2021/03/14 00:23:15;;;;;;;;;;;2.90;98.00;;;;;;5028885;28;19919;-68
2021/03/14 00:25:41;;;;;;;;;;;2.80;98.00;;;;;;5030267;28;19940;-67
2021/03/14 00:28:06;;;;;;;;;;;2.70;98.00;;;;;;5023186;28;19913;-68
2021/03/14 00:30:32;;;;;;;;;;;2.70;98.00;;;;;;5020484;28;19921;-67
2021/03/14 00:32:57;;;;;;;;;;;2.60;98.00;;;;;;5031382;28;19917;-69
2021/03/14 00:35:23;;;;;;;;;;;2.70;98.00;;;;;;5036007;28;19928;-68
2021/03/14 00:37:49;;;;;;;;;;;2.60;98.00;;;;;;5032205;28;19913;-68
2021/03/14 00:40:15;;;;;;;;;;;2.50;98.00;;;;;;5033936;28;20334;-69
2021/03/14 00:42:41;;;;;;;;;;;2.50;98.00;;;;;;5022292;28;20012;-69
2021/03/14 00:45:07;;;;;;;;;;;2.40;98.00;;;;;;5023589;28;19915;-69
2021/03/14 00:47:34;;;;;;;;;;;2.40;98.00;;;;;;5032430;28;20014;-68
2021/03/14 00:49:59;;;;;;;;;;;2.40;98.00;;;;;;5020421;28;19914;-69
2021/03/14 00:52:25;;;;;;;;;;;2.40;98.00;;;;;;5024963;28;19917;-67
2021/03/14 00:54:50;;;;;;;;;;;2.40;98.00;;;;;;5010673;28;19909;-68
2021/03/14 00:57:19;;;;;;;;;;;2.40;98.00;;;;;;5018463;28;19913;-68
2021/03/14 00:59:44;;;;;;;;;;;2.40;98.00;;;;;;5023767;28;19921;-68
2021/03/14 01:02:10;;;;;;;;;;;2.50;98.00;;;;;;5026254;28;20051;-69
2021/03/14 01:04:35;;;;;;;;;;;2.60;98.00;;;;;;5018217;28;19913;-67
2021/03/14 01:07:01;;;;;;;;;;;2.60;98.00;;;;;;5028746;28;20364;-67
2021/03/14 01:09:27;;;;;;;;;;;2.60;98.00;;;;;;5037292;28;19913;-67
2021/03/14 01:11:52;;;;;;;;;;;2.60;98.00;;;;;;5018530;28;19913;-67
2021/03/14 01:14:18;;;;;;;;;;;2.60;98.00;;;;;;5036128;28;20337;-68
2021/03/14 01:16:43;;;;;;;;;;;2.50;98.00;;;;;;5019353;28;19921;-67
2021/03/14 01:19:09;;;;;;;;;;;2.50;98.00;;;;;;5028943;28;19913;-69
2021/03/14 01:21:34;;;;;;;;;;;2.60;98.00;;;;;;5022908;28;20310;-69
2021/03/14 01:24:03;;;;;;;;;;;2.60;98.00;;;;;;5017003;28;19913;-69
2021/03/14 01:26:28;;;;;;;;;;;2.60;98.00;;;;;;5022740;28;20338;-69
2021/03/14 01:28:54;;;;;;;;;;;2.60;98.00;;;;;;5035387;28;19917;-69
2021/03/14 01:31:19;;;;;;;;;;;2.50;98.00;;;;;;5027412;28;19959;-69
2021/03/14 01:33:45;;;;;;;;;;;2.50;98.00;;;;;;5024009;28;19971;-69
2021/03/14 01:36:10;;;;;;;;;;;2.00;98.00;;;;;;5030692;28;19979;-69
2021/03/14 01:38:36;;;;;;;;;;;1.50;98.00;;;;;;5024147;28;19960;-70
2021/03/14 01:41:02;;;;;;;;;;;1.20;98.00;;;;;;5027768;28;19933;-70
2021/03/14 01:43:30;;;;;;;;;;;1.00;98.00;;;;;;5017178;28;20261;-70
2021/03/14 01:45:56;;;;;;;;;;;0.90;98.00;;;;;;5016166;28;20327;-70
2021/03/14 01:48:25;;;;;;;;;;;0.80;97.90;;;;;;5025655;28;20000;-70
2021/03/14 01:50:50;;;;;;;;;;;0.70;97.90;;;;;;5019895;28;20001;-71
2021/03/14 01:53:16;;;;;;;;;;;0.60;97.90;;;;;;5021535;28;20008;-71
2021/03/14 01:55:41;;;;;;;;;;;0.50;98.00;;;;;;5021075;28;19917;-71
2021/03/14 01:58:07;;;;;;;;;;;0.50;97.90;;;;;;5025519;28;19917;-69
2021/03/14 02:00:33;;;;;;;;;;;0.40;97.90;;;;;;5030897;28;19918;-71
2021/03/14 02:02:58;;;;;;;;;;;0.40;97.80;;;;;;5022489;28;19913;-70
2021/03/14 02:05:24;;;;;;;;;;;0.40;97.70;;;;;;5014813;28;19952;-70
2021/03/14 02:07:52;;;;;;;;;;;0.40;97.70;;;;;;5026949;28;20325;-71
2021/03/14 02:10:19;;;;;;;;;;;0.40;97.70;;;;;;5024568;28;20012;-71
2021/03/14 02:12:52;;;;;;;;;;;0.40;97.70;;;;;;5025805;28;19921;-69
2021/03/14 02:15:17;;;;;;;;;;;0.40;97.70;;;;;;5022590;28;19917;-72
2021/03/14 02:17:43;;;;;;;;;;;0.40;97.60;;;;;;5020818;28;19959;-71
2021/03/14 02:20:09;;;;;;;;;;;0.40;97.60;;;;;;5026669;28;19920;-72
2021/03/14 02:22:35;;;;;;;;;;;0.40;97.60;;;;;;5023353;28;19925;-72
2021/03/14 02:25:02;;;;;;;;;;;0.40;97.60;;;;;;5031485;28;19959;-71
2021/03/14 02:27:28;;;;;;;;;;;0.40;97.60;;;;;;5017721;28;19918;-72
2021/03/14 02:29:54;;;;;;;;;;;0.40;97.60;;;;;;5028720;28;19919;-71
2021/03/14 02:32:20;;;;;;;;;;;0.30;97.60;;;;;;5030385;28;20044;-71
2021/03/14 02:34:48;;;;;;;;;;;0.30;97.40;;;;;;5027316;28;19913;-72
2021/03/14 02:37:14;;;;;;;;;;;0.30;97.50;;;;;;5029964;28;19924;-72
2021/03/14 02:39:40;;;;;;;;;;;0.30;97.40;;;;;;5017196;28;19919;-72
2021/03/14 02:42:07;;;;;;;;;;;0.30;97.50;;;;;;5044360;28;20233;-70
2021/03/14 02:44:34;;;;;;;;;;;0.30;97.30;;;;;;5025334;28;19972;-70
2021/03/14 02:47:03;;;;;;;;;;;0.30;97.40;;;;;;5035220;28;19979;-71
2021/03/14 02:49:29;;;;;;;;;;;0.30;97.40;;;;;;5031985;28;20019;-70
2021/03/14 02:51:55;;;;;;;;;;;0.30;97.40;;;;;;5034486;28;20372;-71
2021/03/14 02:54:21;;;;;;;;;;;0.30;97.40;;;;;;5035240;28;19914;-71
2021/03/14 02:56:47;;;;;;;;;;;0.30;97.40;;;;;;5034944;28;20318;-71
2021/03/14 02:59:14;;;;;;;;;;;0.30;97.40;;;;;;5033920;28;19913;-72
2021/03/14 03:01:42;;;;;;;;;;;0.30;97.40;;;;;;5034589;28;20576;-71
2021/03/14 03:04:08;;;;;;;;;;;0.30;97.40;;;;;;5035286;28;20218;-72
2021/03/14 03:06:33;;;;;;;;;;;0.30;97.30;;;;;;5034770;28;19984;-72
2021/03/14 03:08:59;;;;;;;;;;;0.30;97.40;;;;;;5035374;28;20305;-71
2021/03/14 03:11:25;;;;;;;;;;;0.30;97.30;;;;;;5034777;28;19921;-71
2021/03/14 03:13:52;;;;;;;;;;;0.40;97.30;;;;;;5033436;28;20032;-70
2021/03/14 03:16:18;;;;;;;;;;;0.40;97.40;;;;;;5035410;28;19986;-72
2021/03/14 03:18:44;;;;;;;;;;;0.30;97.30;;;;;;5034665;28;19917;-70
2021/03/14 03:21:10;;;;;;;;;;;0.40;97.40;;;;;;5034199;28;20307;-71
2021/03/14 03:23:36;;;;;;;;;;;0.40;97.40;;;;;;5034445;28;19913;-71
2021/03/14 03:26:02;;;;;;;;;;;0.40;97.40;;;;;;5034877;28;20325;-72
2021/03/14 03:28:31;;;;;;;;;;;0.40;97.60;;;;;;5035450;28;19913;-71
2021/03/14 03:30:56;;;;;;;;;;;0.50;97.50;;;;;;5033725;28;19920;-70
2021/03/14 03:33:22;;;;;;;;;;;0.50;97.70;;;;;;5034728;28;19917;-71
2021/03/14 03:35:48;;;;;;;;;;;0.50;97.80;;;;;;5034760;28;19913;-72
2021/03/14 03:38:14;;;;;;;;;;;0.50;97.80;;;;;;5035837;28;19927;-70
2021/03/14 03:40:39;;;;;;;;;;;0.50;97.90;;;;;;5041535;28;20336;-71
2021/03/14 03:43:27;;;;;;;;;;;0.60;97.80;;;;;;5021172;28;19948;-70
2021/03/14 03:45:58;;;;;;;;;;;0.60;98.00;;;;;;5035956;28;19917;-72
2021/03/14 03:48:31;;;;;;;;;;;0.60;98.00;;;;;;5050516;28;19913;-70
2021/03/14 03:50:57;;;;;;;;;;;0.60;98.00;;;;;;5052193;28;19913;-69
2021/03/14 03:53:23;;;;;;;;;;;0.60;98.00;;;;;;5037760;28;20023;-70
2021/03/14 03:55:49;;;;;;;;;;;0.60;98.00;;;;;;5038510;28;20004;-69
2021/03/14 03:58:16;;;;;;;;;;;0.60;98.00;;;;;;5037686;28;20183;-71
2021/03/14 04:00:41;;;;;;;;;;;0.60;98.00;;;;;;5037078;28;19913;-71
2021/03/14 04:03:08;;;;;;;;;;;0.60;97.90;;;;;;5026158;28;19935;-69
2021/03/14 04:05:33;;;;;;;;;;;0.60;98.00;;;;;;5037829;28;20000;-69
2021/03/14 04:07:59;;;;;;;;;;;0.70;98.00;;;;;;5037667;28;19941;-70
2021/03/14 04:10:26;;;;;;;;;;;0.70;98.00;;;;;;5038400;28;19913;-69
2021/03/14 04:12:52;;;;;;;;;;;0.70;98.00;;;;;;5037684;28;19970;-71
2021/03/14 04:15:19;;;;;;;;;;;0.70;98.00;;;;;;5035553;28;19924;-71
2021/03/14 04:17:45;;;;;;;;;;;0.70;98.00;;;;;;5037704;28;19960;-71
2021/03/14 04:20:15;;;;;;;;;;;0.70;98.00;;;;;;5037851;28;19913;-71
2021/03/14 04:22:43;;;;;;;;;;;0.70;98.00;;;;;;5036907;28;19913;-72
2021/03/14 04:25:09;;;;;;;;;;;0.70;98.00;;;;;;5026339;28;19921;-72
2021/03/14 04:27:36;;;;;;;;;;;0.70;98.00;;;;;;5037802;28;19924;-72
2021/03/14 04:30:02;;;;;;;;;;;0.70;98.00;;;;;;5036768;28;19975;-71
2021/03/14 04:32:27;;;;;;;;;;;0.70;98.00;;;;;;5050080;28;20279;-72
2021/03/14 04:34:53;;;;;;;;;;;0.70;98.00;;;;;;5023663;28;20011;-69
2021/03/14 04:37:19;;;;;;;;;;;0.70;98.00;;;;;;5037284;28;19917;-71
2021/03/14 04:39:45;;;;;;;;;;;0.60;98.00;;;;;;5037690;28;19917;-71
2021/03/14 04:42:12;;;;;;;;;;;0.60;98.00;;;;;;5029179;28;19919;-71
2021/03/14 04:44:37;;;;;;;;;;;0.50;98.00;;;;;;5040277;28;19913;-71
2021/03/14 04:47:04;;;;;;;;;;;0.50;98.00;;;;;;5028510;28;19914;-70
2021/03/14 04:49:29;;;;;;;;;;;0.50;97.80;;;;;;5045940;28;19924;-70
2021/03/14 04:51:55;;;;;;;;;;;0.50;97.90;;;;;;5035275;28;19913;-71
2021/03/14 04:54:21;;;;;;;;;;;0.50;97.90;;;;;;5042549;28;19921;-71
2021/03/14 04:56:47;;;;;;;;;;;0.50;97.80;;;;;;5029764;28;19967;-71
2021/03/14 04:59:14;;;;;;;;;;;0.50;97.60;;;;;;5035896;28;19913;-71
2021/03/14 05:01:41;;;;;;;;;;;0.50;97.90;;;;;;5028721;28;19913;-70
2021/03/14 05:04:08;;;;;;;;;;;0.50;98.00;;;;;;5039570;28;19913;-71
2021/03/14 05:06:34;;;;;;;;;;;0.50;98.00;;;;;;5037151;28;19936;-71
2021/03/14 05:09:01;;;;;;;;;;;0.50;98.00;;;;;;5030731;28;20306;-71
2021/03/14 05:11:27;;;;;;;;;;;0.50;98.00;;;;;;5036941;28;19921;-71
2021/03/14 05:13:53;;;;;;;;;;;0.60;98.00;;;;;;5040851;28;20314;-70
2021/03/14 05:16:19;;;;;;;;;;;0.60;98.00;;;;;;5038681;28;19920;-70
2021/03/14 05:18:45;;;;;;;;;;;0.60;98.00;;;;;;5021438;28;19913;-71
2021/03/14 05:21:11;;;;;;;;;;;0.60;98.00;;;;;;5036467;28;20008;-69
2021/03/14 05:23:37;;;;;;;;;;;0.60;98.00;;;;;;5036362;28;20318;-70
2021/03/14 05:26:04;;;;;;;;;;;0.60;98.00;;;;;;5036904;28;19967;-71
2021/03/14 05:28:31;;;;;;;;;;;0.60;98.00;;;;;;5035722;28;19967;-69
2021/03/14 05:30:56;;;;;;;;;;;0.60;98.00;;;;;;5034844;28;20253;-70
2021/03/14 05:33:22;;;;;;;;;;;0.60;98.00;;;;;;5045897;28;19921;-69
2021/03/14 05:35:48;;;;;;;;;;;0.60;98.00;;;;;;5036621;28;19921;-69
2021/03/14 05:38:13;;;;;;;;;;;0.60;98.00;;;;;;5036103;28;19917;-69
2021/03/14 05:40:39;;;;;;;;;;;0.60;98.00;;;;;;5035769;28;20346;-69
2021/03/14 05:43:04;;;;;;;;;;;0.60;98.00;;;;;;5036060;28;19917;-71
2021/03/14 05:45:30;;;;;;;;;;;0.60;98.00;;;;;;5034471;28;19988;-70
2021/03/14 05:47:59;;;;;;;;;;;0.60;98.00;;;;;;5035928;28;19913;-69
2021/03/14 05:50:26;;;;;;;;;;;0.60;98.00;;;;;;5036173;28;19999;-69
2021/03/14 05:52:51;;;;;;;;;;;0.50;98.00;;;;;;5034594;28;19917;-70
2021/03/14 05:55:19;;;;;;;;;;;0.60;98.00;;;;;;5036238;28;19913;-69
2021/03/14 05:57:46;;;;;;;;;;;0.50;98.00;;;;;;5036920;28;19913;-70
2021/03/14 06:00:22;;;;;;;;;;;0.50;98.00;;;;;;5020255;28;19913;-70
2021/03/14 06:02:52;;;;;;;;;;;0.50;98.00;;;;;;5036127;28;19999;-69
2021/03/14 06:05:18;;;;;;;;;;;0.50;98.00;;;;;;5036107;28;19952;-68
2021/03/14 06:07:44;;;;;;;;;;;0.50;98.00;;;;;;5035560;28;19917;-69
2021/03/14 06:10:09;;;;;;;;;;;0.50;98.00;;;;;;5035917;28;19913;-70
2021/03/14 06:12:35;;;;;;;;;;;0.50;98.00;;;;;;5035012;28;19921;-69
2021/03/14 06:15:01;;;;;;;;;;;0.50;98.00;;;;;;5034249;28;19924;-70
2021/03/14 06:17:27;;;;;;;;;;;0.50;98.00;;;;;;5035436;28;19920;-69
2021/03/14 06:19:53;;;;;;;;;;;0.50;98.00;;;;;;5035528;28;20325;-70
2021/03/14 06:22:20;;;;;;;;;;;0.50;98.00;;;;;;5035513;28;19913;-69
2021/03/14 06:24:46;;;;;;;;;;;0.50;98.00;;;;;;5035346;28;19920;-70
2021/03/14 06:27:11;;;;;;;;;;;0.50;98.00;;;;;;5035537;28;19996;-70
2021/03/14 06:29:39;;;;;;;;;;;0.50;98.00;;;;;;5024271;28;19996;-70
2021/03/14 06:32:05;;;;;;;;;;;0.50;98.00;;;;;;5035335;28;19919;-68
2021/03/14 06:34:37;;;;;;;;;;;0.40;98.00;;;;;;5035287;28;20004;-68
2021/03/14 06:37:10;;;;;;;;;;;0.40;98.00;;;;;;5035271;28;19920;-68
2021/03/14 06:39:37;;;;;;;;;;;0.40;98.00;;;;;;5051070;28;19913;-68
2021/03/14 06:42:03;;;;;;;;;;;0.40;98.00;;;;;;5035458;28;19921;-69
2021/03/14 06:44:33;;;;;;;;;;;0.40;98.00;;;;;;5021390;28;19913;-69
2021/03/14 06:47:00;;;;;;;;;;;0.40;98.00;;;;;;5034572;28;19952;-69
2021/03/14 06:49:26;;;;;;;;;;;0.50;97.90;;;;;;5034676;28;19913;-69
2021/03/14 06:51:53;;;;;;;;;;;0.40;98.00;;;;;;5034600;28;19913;-69
2021/03/14 06:54:22;;;;;;;;;;;0.50;98.00;;;;;;5028184;28;20302;-70
2021/03/14 06:56:59;;;;;;;;;;;0.50;98.00;;;;;;5035044;28;19921;-68
2021/03/14 06:59:25;;;;;;;;;;;0.40;98.00;;;;;;5026073;28;19992;-68
2021/03/14 07:01:57;;;;;;;;;;;0.40;98.00;;;;;;5034676;28;19999;-68
2021/03/14 07:04:41;;;;;;;;;;;0.30;98.00;;;;;;5034241;28;20222;-68
2021/03/14 07:07:11;;;;;;;;;;;0.30;98.00;;;;;;5034204;28;20209;-70
2021/03/14 07:09:37;;;;;;;;;;;0.40;98.00;;;;;;5019877;28;20345;-70
2021/03/14 07:12:14;;;;;;;;;;;0.50;98.00;;;;;;5034500;28;19949;-70
2021/03/14 07:14:39;;;;;;;;;;;0.70;98.00;;;;;;5036835;28;19913;-70
2021/03/14 07:17:05;;;;;;;;;;;1.00;98.00;;;;;;5039102;28;20003;-70
2021/03/14 07:19:31;;;;;;;;;;;1.10;98.00;;;;;;5038978;28;20028;-70
2021/03/14 07:22:03;;;;;;;;;;;1.20;98.00;;;;;;5037534;28;19913;-70
2021/03/14 07:24:30;;;;;;;;;;;1.20;98.00;;;;;;5021299;28;19913;-70
2021/03/14 07:26:56;;;;;;;;;;;1.30;98.00;;;;;;5039139;28;20264;-71
2021/03/14 07:29:23;;;;;;;;;;;1.40;98.00;;;;;;5036735;28;19917;-71
2021/03/14 07:31:51;;;;;;;;;;;1.30;98.00;;;;;;5042610;28;20382;-71
2021/03/14 07:34:16;;;;;;;;;;;1.20;98.00;;;;;;5023838;28;19943;-71
2021/03/14 07:36:44;;;;;;;;;;;1.20;98.00;;;;;;5035059;28;19916;-71
2021/03/14 07:39:09;;;;;;;;;;;1.20;98.00;;;;;;5039245;28;19913;-71
2021/03/14 07:41:35;;;;;;;;;;;1.40;98.00;;;;;;5020471;28;20004;-71
2021/03/14 07:44:01;;;;;;;;;;;1.50;98.00;;;;;;5041489;28;19921;-71
2021/03/14 07:46:27;;;;;;;;;;;1.40;98.00;;;;;;5037359;28;20269;-70
2021/03/14 07:48:58;;;;;;;;;;;1.50;98.00;;;;;;5020784;28;19920;-71
2021/03/14 07:51:24;;;;;;;;;;;1.60;98.00;;;;;;5042985;28;19913;-71
2021/03/14 07:53:51;;;;;;;;;;;1.90;98.00;;;;;;5037520;28;20063;-70
2021/03/14 07:56:16;;;;;;;;;;;2.00;98.00;;;;;;5038842;28;19939;-71
2021/03/14 07:58:42;;;;;;;;;;;2.00;98.00;;;;;;5038772;28;20008;-70
2021/03/14 08:01:22;;;;;;;;;;;2.00;98.00;;;;;;5038319;28;19920;-69
2021/03/14 08:03:48;;;;;;;;;;;1.90;98.00;;;;;;5040812;28;19913;-69
2021/03/14 08:06:14;;;;;;;;;;;2.00;98.00;;;;;;5021751;28;20238;-70
2021/03/14 08:08:39;;;;;;;;;;;2.20;98.00;;;;;;5037578;28;19913;-70
2021/03/14 08:11:06;;;;;;;;;;;2.20;98.00;;;;;;5038948;28;19917;-68
2021/03/14 08:13:33;;;;;;;;;;;2.30;98.00;;;;;;5040185;28;19921;-69
2021/03/14 08:16:09;;;;;;;;;;;2.40;98.00;;;;;;5035848;28;19913;-69
2021/03/14 08:18:36;;;;;;;;;;;2.40;98.00;;;;;;5037909;28;19944;-70
2021/03/14 08:21:01;;;;;;;;;;;2.30;97.80;;;;;;5036288;28;19921;-71
2021/03/14 08:23:40;;;;;;;;;;;2.50;98.00;;;;;;5035648;28;19960;-70
2021/03/14 08:26:15;;;;;;;;;;;3.20;98.00;;;;;;5034829;28;19913;-70
2021/03/14 08:28:51;;;;;;;;;;;3.80;96.50;;;;;;5035484;28;19913;-71
2021/03/14 08:31:35;;;;;;;;;;;4.00;95.30;;;;;;5041320;28;20357;-70
2021/03/14 08:34:00;;;;;;;;;;;4.10;94.40;;;;;;5038650;28;20069;-70
2021/03/14 08:36:33;;;;;;;;;;;4.00;94.20;;;;;;5037841;28;19913;-70
2021/03/14 08:38:59;;;;;;;;;;;4.70;93.70;;;;;;5020117;28;20043;-69
2021/03/14 08:41:35;;;;;;;;;;;5.50;89.30;;;;;;5035433;28;20381;-70
2021/03/14 08:44:03;;;;;;;;;;;5.80;89.20;;;;;;5036386;28;19932;-69
2021/03/14 08:46:47;;;;;;;;;;;6.50;88.00;;;;;;5038164;28;19913;-69
2021/03/14 08:49:13;;;;;;;;;;;6.90;85.60;;;;;;5034819;28;20260;-70
2021/03/14 08:51:39;;;;;;;;;;;6.70;83.00;;;;;;5044957;28;19920;-70
2021/03/14 08:54:05;;;;;;;;;;;6.40;84.90;;;;;;5044042;28;19917;-69
2021/03/14 08:56:30;;;;;;;;;;;6.10;87.60;;;;;;5038666;28;19990;-69
2021/03/14 08:59:06;;;;;;;;;;;6.60;86.30;;;;;;5040351;28;19919;-66
2021/03/14 09:01:32;;;;;;;;;;;6.80;84.00;;;;;;5052390;28;20317;-70
2021/03/14 09:03:57;;;;;;;;;;;7.30;84.20;;;;;;5040084;28;19913;-68
2021/03/14 09:06:31;;;;;;;;;;;7.10;82.70;;;;;;5020519;28;19913;-69
2021/03/14 09:08:58;;;;;;;;;;;6.60;83.70;;;;;;5044250;28;19956;-68
2021/03/14 09:11:43;;;;;;;;;;;6.20;85.40;;;;;;5042129;28;19921;-69
2021/03/14 09:14:27;;;;;;;;;;;6.30;86.00;;;;;;5032979;28;19928;-69
2021/03/14 09:16:54;;;;;;;;;;;6.20;83.80;;;;;;5033603;28;19913;-68
2021/03/14 09:19:39;;;;;;;;;;;5.30;86.60;;;;;;5036692;28;19913;-69
2021/03/14 09:22:06;;;;;;;;;;;4.60;89.30;;;;;;5036525;28;19955;-69
2021/03/14 09:24:33;;;;;;;;;;;4.70;89.80;;;;;;5036375;28;19917;-70
2021/03/14 09:27:00;;;;;;;;;;;4.90;89.90;;;;;;5026846;28;19917;-68
2021/03/14 09:29:36;;;;;;;;;;;5.00;89.20;;;;;;5035850;28;19916;-69
2021/03/14 09:32:13;;;;;;;;;;;5.00;89.80;;;;;;5027794;28;19917;-69
2021/03/14 09:34:39;;;;;;;;;;;5.50;86.30;;;;;;5036227;28;19921;-69
2021/03/14 09:37:06;;;;;;;;;;;5.50;86.20;;;;;;5038718;28;19920;-70
2021/03/14 09:39:33;;;;;;;;;;;4.70;88.40;;;;;;5040509;28;19963;-68
2021/03/14 09:41:59;;;;;;;;;;;4.10;89.80;;;;;;5043430;28;19920;-68
2021/03/14 09:44:24;;;;;;;;;;;4.10;90.10;;;;;;5035162;28;20031;-68
2021/03/14 09:46:57;;;;;;;;;;;4.70;89.90;;;;;;5034667;28;19974;-68
2021/03/14 09:49:22;;;;;;;;;;;5.20;89.00;;;;;;5034330;28;19913;-68
2021/03/14 09:51:57;;;;;;;;;;;4.80;90.00;;;;;;5037196;28;19982;-67
2021/03/14 09:54:23;;;;;;;;;;;4.90;89.30;;;;;;5031753;28;19917;-67
2021/03/14 09:56:58;;;;;;;;;;;5.10;88.00;;;;;;5016308;28;19947;-68
2021/03/14 09:59:27;;;;;;;;;;;4.80;86.70;;;;;;5029929;28;19940;-67
2021/03/14 10:01:56;;;;;;;;;;;4.60;87.00;;;;;;5028367;28;19917;-69
2021/03/14 10:04:21;;;;;;;;;;;4.50;88.30;;;;;;5031764;28;20016;-69
2021/03/14 10:06:47;;;;;;;;;;;4.50;86.50;;;;;;5041651;28;20114;-69
2021/03/14 10:09:20;;;;;;;;;;;4.40;86.60;;;;;;5032688;28;19917;-69
2021/03/14 10:11:45;;;;;;;;;;;4.20;86.20;;;;;;5024148;28;19920;-68
2021/03/14 10:14:11;;;;;;;;;;;4.30;84.90;;;;;;5027902;28;19920;-70
2021/03/14 10:16:39;;;;;;;;;;;5.50;84.80;;;;;;5037093;28;19917;-68
2021/03/14 10:19:05;;;;;;;;;;;6.40;81.70;;;;;;5031181;28;20308;-67
2021/03/14 10:21:31;;;;;;;;;;;6.10;81.60;;;;;;5026125;28;20325;-68
2021/03/14 10:24:15;;;;;;;;;;;6.00;82.90;;;;;;5027341;28;20547;-67
2021/03/14 10:27:01;;;;;;;;;;;5.20;81.60;;;;;;5025582;28;19984;-67
2021/03/14 10:29:31;;;;;;;;;;;4.50;83.90;;;;;;5022330;28;19985;-67
2021/03/14 10:31:57;;;;;;;;;;;4.10;86.00;;;;;;5032055;28;19949;-68
2021/03/14 10:34:25;;;;;;;;;;;3.80;86.60;;;;;;5031414;28;19921;-68
2021/03/14 10:36:52;;;;;;;;;;;3.90;87.40;;;;;;5033048;28;19947;-68
2021/03/14 10:39:24;;;;;;;;;;;3.90;88.00;;;;;;5029108;28;20373;-68
2021/03/14 10:41:50;;;;;;;;;;;4.00;88.40;;;;;;5030835;28;19944;-68
2021/03/14 10:44:20;;;;;;;;;;;4.00;89.00;;;;;;5028712;28;19996;-67
2021/03/14 10:46:50;;;;;;;;;;;4.00;88.80;;;;;;5031109;28;19924;-69
2021/03/14 10:49:17;;;;;;;;;;;3.80;87.60;;;;;;5028746;28;19917;-68
2021/03/14 10:51:44;;;;;;;;;;;3.80;88.10;;;;;;5030470;28;19916;-67
2021/03/14 10:54:13;;;;;;;;;;;3.70;87.10;;;;;;5032912;28;20314;-69
2021/03/14 10:56:40;;;;;;;;;;;3.70;88.70;;;;;;5031449;28;20313;-69
2021/03/14 10:59:07;;;;;;;;;;;4.00;88.30;;;;;;5036669;28;19971;-67
2021/03/14 11:01:41;;;;;;;;;;;4.80;86.70;;;;;;5033175;28;19917;-68
2021/03/14 11:04:07;;;;;;;;;;;4.70;85.40;;;;;;5032922;28;19948;-68
2021/03/14 11:06:34;;;;;;;;;;;4.30;85.40;;;;;;5031082;28;20261;-67
2021/03/14 11:09:03;;;;;;;;;;;4.10;86.90;;;;;;5025665;28;19982;-68
2021/03/14 11:11:40;;;;;;;;;;;4.20;87.30;;;;;;5031179;28;19925;-68
2021/03/14 11:14:25;;;;;;;;;;;4.20;86.30;;;;;;5029812;28;19921;-68
2021/03/14 11:17:03;;;;;;;;;;;4.40;86.10;;;;;;5036264;28;19924;-67
2021/03/14 11:19:29;;;;;;;;;;;4.70;84.80;;;;;;5036843;28;20415;-68
2021/03/14 11:21:54;;;;;;;;;;;5.00;84.40;;;;;;5022978;28;19921;-67
2021/03/14 11:24:20;;;;;;;;;;;5.10;83.00;;;;;;5019630;28;20329;-68
2021/03/14 11:26:45;;;;;;;;;;;5.50;81.30;;;;;;5031610;28;19917;-67
2021/03/14 11:29:11;;;;;;;;;;;5.70;81.40;;;;;;5029858;28;20332;-68
2021/03/14 11:31:37;;;;;;;;;;;6.30;79.40;;;;;;5032004;28;19913;-67
2021/03/14 11:34:05;;;;;;;;;;;7.00;78.00;;;;;;5031073;28;19949;-67
2021/03/14 11:36:31;;;;;;;;;;;7.20;76.80;;;;;;5031764;28;19959;-67
2021/03/14 11:38:57;;;;;;;;;;;7.70;76.90;;;;;;5039810;28;20293;-67
2021/03/14 11:41:22;;;;;;;;;;;8.40;73.40;;;;;;5034464;28;19960;-66
2021/03/14 11:43:48;;;;;;;;;;;7.40;73.30;;;;;;5022083;28;19947;-66
2021/03/14 11:46:14;;;;;;;;;;;6.80;75.60;;;;;;5037938;28;19917;-67
2021/03/14 11:48:39;;;;;;;;;;;6.60;76.60;;;;;;5024097;28;19913;-67
2021/03/14 11:51:05;;;;;;;;;;;6.40;76.70;;;;;;5018203;28;19952;-68
2021/03/14 11:53:31;;;;;;;;;;;6.20;77.50;;;;;;5032793;28;19983;-67
2021/03/14 11:55:56;;;;;;;;;;;6.20;78.60;;;;;;5033088;28;19917;-67
2021/03/14 11:58:22;;;;;;;;;;;6.40;78.30;;;;;;5032861;28;19917;-69
2021/03/14 12:00:48;;;;;;;;;;;7.10;77.70;;;;;;5034088;28;20193;-67
2021/03/14 12:03:13;;;;;;;;;;;7.30;75.60;;;;;;5021038;28;19924;-68
2021/03/14 12:05:39;;;;;;;;;;;6.70;77.00;;;;;;5035522;28;19913;-69
2021/03/14 12:08:05;;;;;;;;;;;6.40;77.50;;;;;;5035767;28;19956;-68
2021/03/14 12:10:30;;;;;;;;;;;6.30;78.20;;;;;;5035410;28;19923;-67
2021/03/14 12:12:56;;;;;;;;;;;6.10;78.70;;;;;;5035467;28;19921;-69
2021/03/14 12:15:21;;;;;;;;;;;5.70;79.40;;;;;;5035801;28;19914;-68
2021/03/14 12:17:47;;;;;;;;;;;5.20;81.30;;;;;;5036775;28;19921;-67
2021/03/14 12:20:13;;;;;;;;;;;5.30;81.50;;;;;;5036252;28;19971;-68
2021/03/14 12:22:38;;;;;;;;;;;5.20;80.00;;;;;;5035603;28;19920;-67
2021/03/14 12:25:05;;;;;;;;;;;4.90;81.10;;;;;;5036222;28;20353;-69
2021/03/14 12:27:31;;;;;;;;;;;4.90;81.10;;;;;;5034136;28;19921;-69
2021/03/14 12:29:57;;;;;;;;;;;4.80;81.70;;;;;;5030342;28;20380;-68
2021/03/14 12:32:22;;;;;;;;;;;4.90;81.90;;;;;;5034322;28;19913;-68
2021/03/14 12:34:51;;;;;;;;;;;4.90;82.40;;;;;;5031215;28;19921;-67
2021/03/14 12:37:17;;;;;;;;;;;4.80;82.00;;;;;;5030282;28;19974;-68
2021/03/14 12:39:43;;;;;;;;;;;4.90;82.90;;;;;;5035204;28;20007;-66
2021/03/14 12:42:09;;;;;;;;;;;5.10;81.80;;;;;;5035836;28;19955;-66
2021/03/14 12:44:34;;;;;;;;;;;5.10;81.10;;;;;;5034351;28;19913;-68
2021/03/14 12:47:00;;;;;;;;;;;5.00;82.00;;;;;;5032811;28;19921;-68
2021/03/14 12:49:25;;;;;;;;;;;5.10;81.60;;;;;;5034035;28;19928;-67
2021/03/14 12:51:54;;;;;;;;;;;5.10;81.40;;;;;;5038638;28;20222;-68
2021/03/14 12:54:19;;;;;;;;;;;5.20;82.10;;;;;;5038829;28;19924;-67
2021/03/14 12:56:45;;;;;;;;;;;5.10;81.20;;;;;;5034279;28;19913;-68
2021/03/14 12:59:10;;;;;;;;;;;4.90;80.90;;;;;;5033398;28;19921;-69
2021/03/14 13:01:36;;;;;;;;;;;4.90;80.90;;;;;;5042186;28;19948;-69
2021/03/14 13:04:01;;;;;;;;;;;4.90;82.00;;;;;;5022787;28;19915;-69
2021/03/14 13:06:27;;;;;;;;;;;4.90;82.60;;;;;;5040852;28;19921;-69
2021/03/14 13:08:53;;;;;;;;;;;4.80;82.80;;;;;;5032208;28;19913;-69
2021/03/14 13:11:19;;;;;;;;;;;4.70;82.40;;;;;;5038931;28;19943;-68
2021/03/14 13:13:44;;;;;;;;;;;4.60;82.20;;;;;;5022231;28;19917;-69
2021/03/14 13:16:10;;;;;;;;;;;4.70;83.20;;;;;;5038416;28;19921;-68
2021/03/14 13:18:35;;;;;;;;;;;4.80;83.20;;;;;;5037114;28;20317;-68
2021/03/14 13:21:01;;;;;;;;;;;5.00;84.00;;;;;;5018683;28;19918;-68
2021/03/14 13:23:33;;;;;;;;;;;5.00;83.30;;;;;;5034562;28;20284;-67
2021/03/14 13:26:01;;;;;;;;;;;4.90;84.10;;;;;;5035614;28;19917;-66
2021/03/14 13:28:34;;;;;;;;;;;4.70;85.30;;;;;;5043476;28;20170;-68
2021/03/14 13:31:00;;;;;;;;;;;4.80;86.00;;;;;;5033527;28;19917;-67
2021/03/14 13:33:26;;;;;;;;;;;4.90;86.10;;;;;;5031182;28;19972;-69
2021/03/14 13:35:52;;;;;;;;;;;4.80;85.20;;;;;;5036992;28;19925;-68
2021/03/14 13:38:17;;;;;;;;;;;4.70;85.30;;;;;;5033735;28;19921;-68
2021/03/14 13:40:43;;;;;;;;;;;4.50;85.00;;;;;;5033773;28;20272;-67
2021/03/14 13:43:09;;;;;;;;;;;4.30;86.20;;;;;;5035207;28;20246;-68
2021/03/14 13:45:34;;;;;;;;;;;4.20;86.80;;;;;;5032861;28;19928;-69
2021/03/14 13:48:00;;;;;;;;;;;4.50;87.50;;;;;;5034708;28;19922;-68
2021/03/14 13:50:26;;;;;;;;;;;4.60;86.70;;;;;;5017243;28;20017;-67
2021/03/14 13:52:52;;;;;;;;;;;4.70;86.80;;;;;;5032043;28;19917;-67
2021/03/14 13:55:18;;;;;;;;;;;5.00;86.40;;;;;;5017680;28;19929;-68
2021/03/14 13:57:44;;;;;;;;;;;5.10;85.90;;;;;;5033911;28;19975;-67
2021/03/14 14:00:11;;;;;;;;;;;4.90;85.80;;;;;;5032920;28;20253;-68
2021/03/14 14:02:37;;;;;;;;;;;4.70;86.70;;;;;;5033630;28;19921;-68
2021/03/14 14:05:03;;;;;;;;;;;4.60;87.90;;;;;;5035256;28;20187;-68
2021/03/14 14:07:28;;;;;;;;;;;4.50;88.30;;;;;;5034755;28;20294;-68
2021/03/14 14:09:54;;;;;;;;;;;4.30;90.00;;;;;;5033610;28;19913;-67
2021/03/14 14:12:20;;;;;;;;;;;4.10;89.60;;;;;;5019638;28;19913;-68
2021/03/14 14:14:46;;;;;;;;;;;4.10;90.20;;;;;;5033461;28;20314;-67
2021/03/14 14:17:12;;;;;;;;;;;4.00;90.70;;;;;;5034655;28;19917;-68
2021/03/14 14:19:37;;;;;;;;;;;3.90;91.50;;;;;;5034498;28;20270;-67
2021/03/14 14:22:03;;;;;;;;;;;3.90;92.30;;;;;;5034465;28;19963;-68
2021/03/14 14:24:28;;;;;;;;;;;3.90;92.30;;;;;;5034218;28;19920;-67
2021/03/14 14:26:54;;;;;;;;;;;4.00;91.70;;;;;;5034262;28;19992;-68
2021/03/14 14:29:19;;;;;;;;;;;3.90;91.80;;;;;;5033218;28;20278;-68
2021/03/14 14:31:45;;;;;;;;;;;3.90;91.80;;;;;;5033472;28;19917;-69